Time;durP1;ratioP1;P1;durP2;ratioP2;P2;SDS_P1;SDS_P2;PMS_P1;PMS_P2;Temp;Humidity;BMP_temperature;BMP_pressure;BME280_temperature;BME280_humidity;BME280_pressure;Samples;Min_cycle;Max_cycle;Signal;HPM_P1;HPM_P2
2022/07/21 00:01:34;;;;;;;12.07;7.75;;;;;;;23.12;100.00;101637.84;5072987;28;20044;-57
2022/07/21 00:04:00;;;;;;;10.68;7.28;;;;;;;23.33;100.00;101629.84;5073025;28;20033;-56
2022/07/21 00:06:26;;;;;;;;;;;;;;;23.32;100.00;101631.75;5074054;28;20092;-56
2022/07/21 00:08:52;;;;;;;10.47;6.07;;;;;;;23.54;100.00;101630.81;5072640;28;20011;-58
2022/07/21 00:11:17;;;;;;;10.00;6.22;;;;;;;23.44;100.00;101619.81;5073826;28;20036;-57
2022/07/21 00:13:42;;;;;;;10.15;5.85;;;;;;;23.29;100.00;101618.59;5075400;28;20100;-57
2022/07/21 00:16:08;;;;;;;8.73;5.78;;;;;;;23.23;100.00;101624.28;5076985;28;20064;-58
2022/07/21 00:18:33;;;;;;;13.82;6.47;;;;;;;23.33;100.00;101624.38;5077560;28;20091;-52
2022/07/21 00:21:00;;;;;;;10.43;7.10;;;;;;;23.14;100.00;101624.75;5072373;28;20060;-56
2022/07/21 00:23:26;;;;;;;10.97;7.73;;;;;;;23.26;100.00;101627.31;5075506;28;20029;-58
2022/07/21 00:25:52;;;;;;;9.32;6.65;;;;;;;23.08;100.00;101623.09;5076832;28;20032;-57
2022/07/21 00:28:18;;;;;;;9.63;7.10;;;;;;;22.99;100.00;101624.66;5077770;28;20036;-54
2022/07/21 00:30:44;;;;;;;11.35;7.10;;;;;;;22.95;100.00;101624.34;5074555;28;20028;-58
2022/07/21 00:33:09;;;;;;;;;;;;;;;22.94;100.00;101616.41;5081568;28;20032;-53
2022/07/21 00:35:35;;;;;;;10.10;6.50;;;;;;;22.90;100.00;101611.47;5075009;28;19913;-57
2022/07/21 00:38:01;;;;;;;9.98;7.10;;;;;;;23.29;100.00;101617.81;5075292;28;20040;-59
2022/07/21 00:40:26;;;;;;;11.27;7.40;;;;;;;23.56;100.00;101612.25;5073974;28;20033;-54
2022/07/21 00:42:52;;;;;;;12.40;7.60;;;;;;;23.44;100.00;101608.88;5077157;28;20060;-55
2022/07/21 00:45:18;;;;;;;10.05;7.50;;;;;;;23.20;100.00;101603.78;5073919;28;20033;-57
2022/07/21 00:47:43;;;;;;;10.82;7.43;;;;;;;22.96;100.00;101598.72;5080271;28;20033;-56
2022/07/21 00:50:13;;;;;;;12.43;8.38;;;;;;;23.12;100.00;101607.03;5073909;28;20036;-55
2022/07/21 00:52:39;;;;;;;11.80;7.93;;;;;;;23.25;100.00;101594.84;5080498;28;20059;-56
2022/07/21 00:55:06;;;;;;;11.15;7.38;;;;;;;23.20;100.00;101603.78;5074796;28;20033;-57
2022/07/21 00:57:32;;;;;;;15.27;8.77;;;;;;;23.00;100.00;101604.47;5076381;28;20029;-56
2022/07/21 00:59:58;;;;;;;;;;;;;;;23.05;100.00;101602.59;5077333;28;20029;-56
2022/07/21 01:02:26;;;;;;;12.27;8.13;;;;;;;23.00;100.00;101599.03;5073063;28;19952;-57
2022/07/21 01:04:52;;;;;;;11.73;8.33;;;;;;;23.03;100.00;101593.03;5075394;28;20044;-57
2022/07/21 01:07:19;;;;;;;13.30;8.52;;;;;;;23.18;100.00;101592.31;5075800;28;20037;-56
2022/07/21 01:09:45;;;;;;;15.60;10.43;;;;;;;23.08;100.00;101590.34;5074381;28;20044;-59
2022/07/21 01:12:11;;;;;;;15.82;9.65;;;;;;;22.85;100.00;101586.09;5082471;28;20037;-57
2022/07/21 01:14:38;;;;;;;11.77;8.70;;;;;;;22.90;100.00;101594.31;5084475;28;20048;-57
2022/07/21 01:17:04;;;;;;;;;;;;;;;23.13;100.00;101592.28;5073609;28;20052;-56
2022/07/21 01:19:30;;;;;;;13.57;8.87;;;;;;;23.35;100.00;101581.28;5077144;28;19939;-56
2022/07/21 01:21:56;;;;;;;13.55;9.13;;;;;;;23.06;100.00;101578.88;5073115;28;20096;-53
2022/07/21 01:24:21;;;;;;;14.50;9.95;;;;;;;23.20;100.00;101571.88;5074600;28;20059;-59
2022/07/21 01:26:52;;;;;;;14.68;9.90;;;;;;;23.23;100.00;101570.53;5072833;28;20037;-58
2022/07/21 01:29:18;;;;;;;15.10;9.70;;;;;;;22.95;100.00;101575.25;5077206;28;20036;-57
2022/07/21 01:31:45;;;;;;;14.80;10.10;;;;;;;22.89;100.00;101577.13;5072979;28;20041;-57
2022/07/21 01:34:12;;;;;;;14.30;10.33;;;;;;;22.82;100.00;101581.13;5078401;28;20098;-57
2022/07/21 01:36:38;;;;;;;17.90;10.40;;;;;;;22.57;100.00;101588.00;5071585;28;20032;-57
2022/07/21 01:41:50;;;;;;;18.90;11.83;;;;;;;22.43;100.00;101593.03;5079823;28;19912;-57
2022/07/21 01:44:16;;;;;;;17.95;12.10;;;;;;;22.37;100.00;101586.69;5081752;28;20075;-57
2022/07/21 01:46:44;;;;;;;15.80;11.90;;;;;;;22.49;100.00;101600.22;5079497;28;20049;-56
2022/07/21 01:49:11;;;;;;;18.50;12.53;;;;;;;22.42;100.00;101600.41;5080068;28;20033;-54
2022/07/21 01:51:37;;;;;;;17.97;11.37;;;;;;;22.31;100.00;101593.19;5078320;28;20021;-55
2022/07/21 01:54:03;;;;;;;17.88;12.55;;;;;;;;;;5079618;28;20055;-57
2022/07/21 01:56:28;;;;;;;21.42;13.00;;;;;;;22.27;100.00;101592.06;5076960;28;20100;-57
2022/07/21 01:58:56;;;;;;;19.70;11.95;;;;;;;22.46;100.00;101585.22;5079516;28;20093;-57
2022/07/21 02:01:28;;;;;;;17.20;12.63;;;;;;;22.45;100.00;101588.97;5080751;28;20037;-58
2022/07/21 02:03:59;;;;;;;19.00;13.20;;;;;;;22.24;100.00;101592.56;5079367;28;20029;-56
2022/07/21 02:06:26;;;;;;;19.27;12.77;;;;;;;22.43;100.00;101587.59;5078302;28;20057;-58
2022/07/21 02:08:52;;;;;;;18.67;13.20;;;;;;;22.54;100.00;101581.19;5082357;28;20033;-57
2022/07/21 02:11:18;;;;;;;22.42;13.60;;;;;;;22.40;100.00;101579.94;5082082;28;20067;-56
2022/07/21 02:13:44;;;;;;;;;;;;;;;22.28;100.00;101580.09;5078071;28;20033;-62
2022/07/21 02:16:10;;;;;;;18.03;11.97;;;;;;;22.19;100.00;101580.56;5083271;28;19912;-58
2022/07/21 02:18:36;;;;;;;23.33;13.10;;;;;;;22.32;100.00;101578.47;5077759;28;20043;-60
2022/07/21 02:21:02;;;;;;;16.13;12.00;;;;;;;22.38;100.00;101569.31;5081040;28;20117;-56
2022/07/21 02:23:29;;;;;;;19.77;12.70;;;;;;;22.27;100.00;101571.09;5080004;28;20092;-58
2022/07/21 02:25:56;;;;;;;20.63;13.43;;;;;;;22.13;100.00;101570.66;5078878;28;20043;-57
2022/07/21 02:28:23;;;;;;;22.73;13.17;;;;;;;22.00;100.00;101568.34;5076362;28;20055;-55
2022/07/21 02:30:49;;;;;;;;;;;;;;;22.43;100.00;101566.63;5077873;28;20037;-58
2022/07/21 02:33:15;;;;;;;21.53;13.80;;;;;;;22.17;100.00;101566.38;5076338;28;19921;-58
2022/07/21 02:35:41;;;;;;;19.85;13.88;;;;;;;22.35;100.00;101573.34;5076300;28;20039;-58
2022/07/21 02:38:07;;;;;;;24.03;14.93;;;;;;;22.49;100.00;101568.34;5077581;28;20071;-57
2022/07/21 02:40:33;;;;;;;;;;;;;;;22.06;100.00;101553.69;5076404;28;20029;-55
2022/07/21 02:43:00;;;;;;;25.00;14.93;;;;;;;22.01;100.00;101557.19;5075750;28;19913;-56
2022/07/21 02:45:25;;;;;;;;;;;;;;;22.20;100.00;101557.69;5079659;28;20047;-56
2022/07/21 02:47:58;;;;;;;21.70;14.13;;;;;;;22.17;100.00;101554.63;5081176;28;19916;-59
2022/07/21 02:50:27;;;;;;;23.37;13.87;;;;;;;22.34;100.00;101549.06;5075716;28;20036;-57
2022/07/21 02:52:57;;;;;;;24.60;15.93;;;;;;;22.47;100.00;101542.41;5076206;28;20021;-57
2022/07/21 02:55:23;;;;;;;23.43;14.63;;;;;;;22.29;100.00;101532.69;5085251;28;20062;-56
2022/07/21 02:57:49;;;;;;;24.30;15.47;;;;;;;22.07;100.00;101539.00;5078874;28;20037;-59
2022/07/21 03:00:15;;;;;;;23.08;15.10;;;;;;;21.90;100.00;101539.09;5078597;28;20079;-57
2022/07/21 03:02:41;;;;;;;25.23;14.48;;;;;;;21.77;100.00;101543.84;5078790;28;20112;-56
2022/07/21 03:05:07;;;;;;;23.70;15.15;;;;;;;22.30;100.00;101545.22;5083148;28;20044;-59
2022/07/21 03:07:32;;;;;;;26.45;16.30;;;;;;;22.36;100.00;101557.81;5076073;28;20658;-58
2022/07/21 03:09:58;;;;;;;27.58;17.88;;;;;;;22.35;100.00;101556.16;5078317;28;20033;-59
2022/07/21 03:12:24;;;;;;;29.77;16.95;;;;;;;21.90;100.00;101560.88;5077303;28;20052;-56
2022/07/21 03:14:49;;;;;;;28.45;17.13;;;;;;;22.08;100.00;101557.00;5078272;28;20057;-56
2022/07/21 03:17:15;;;;;;;31.27;18.23;;;;;;;22.39;100.00;101556.47;5085718;28;20114;-60
2022/07/21 03:19:40;;;;;;;28.15;17.85;;;;;;;22.10;100.00;101554.84;5074402;28;20040;-56
2022/07/21 03:22:05;;;;;;;26.42;17.02;;;;;;;22.30;100.00;101556.13;5076007;28;20036;-59
2022/07/21 03:24:31;;;;;;;27.00;17.35;;;;;;;22.18;100.00;101553.56;5075746;28;20044;-55
2022/07/21 03:26:57;;;;;;;25.52;17.92;;;;;;;22.23;100.00;101553.59;5078278;28;20033;-58
2022/07/21 03:29:23;;;;;;;;;;;;;;;22.41;100.00;101552.44;5087632;28;20037;-58
2022/07/21 03:31:49;;;;;;;28.57;18.80;;;;;;;22.49;100.00;101553.91;5072138;28;19986;-56
2022/07/21 03:34:14;;;;;;;28.52;18.58;;;;;;;22.44;100.00;101568.25;5080126;28;20033;-59
2022/07/21 03:36:39;;;;;;;29.63;20.15;;;;;;;22.32;100.00;101564.84;5080251;28;20028;-58
2022/07/21 03:39:05;;;;;;;38.75;20.48;;;;;;;22.26;100.00;101564.00;5077989;28;20040;-58
2022/07/21 03:41:31;;;;;;;;;;;;;;;22.28;100.00;101567.28;5074852;28;20105;-58
2022/07/21 03:43:57;;;;;;;32.37;20.03;;;;;;;22.33;100.00;101570.06;5075241;28;19917;-57
2022/07/21 03:46:23;;;;;;;29.85;19.60;;;;;;;22.31;100.00;101569.50;5075203;28;20089;-57
2022/07/21 03:48:49;;;;;;;32.08;19.48;;;;;;;22.36;100.00;101568.72;5075221;28;20067;-58
2022/07/21 03:51:15;;;;;;;;;;;;;;;22.55;100.00;101568.38;5084432;28;20097;-58
2022/07/21 03:53:40;;;;;;;35.37;19.50;;;;;;;22.56;100.00;101576.31;5076948;28;19917;-57
2022/07/21 03:56:06;;;;;;;27.00;16.85;;;;;;;22.63;100.00;101571.44;5086414;28;20047;-59
2022/07/21 03:58:32;;;;;;;31.05;18.42;;;;;;;22.48;100.00;101577.59;5075915;28;20072;-58
2022/07/21 04:00:58;;;;;;;30.33;18.80;;;;;;;22.59;100.00;101567.59;5074667;28;20024;-58
2022/07/21 04:03:23;;;;;;;33.63;18.25;;;;;;;22.65;100.00;101563.03;5073811;28;20067;-56
2022/07/21 04:05:49;;;;;;;28.88;18.50;;;;;;;22.41;100.00;101565.22;5073848;28;20080;-58
2022/07/21 04:08:14;;;;;;;27.30;18.92;;;;;;;22.49;100.00;101562.88;5081872;28;20032;-57
2022/07/21 04:10:41;;;;;;;37.58;21.42;;;;;;;22.35;100.00;101564.34;5073772;28;20033;-59
2022/07/21 04:13:09;;;;;;;36.63;22.30;;;;;;;22.34;100.00;101563.53;5073157;28;20079;-59
2022/07/21 04:15:36;;;;;;;42.13;23.33;;;;;;;22.33;100.00;101558.34;5074068;28;20036;-55
2022/07/21 04:18:02;;;;;;;38.90;22.53;;;;;;;22.39;100.00;101560.03;5074585;28;20049;-58
2022/07/21 04:20:28;;;;;;;36.53;21.63;;;;;;;22.36;100.00;101557.81;5077588;28;20044;-59
2022/07/21 04:22:54;;;;;;;37.47;20.67;;;;;;;22.65;100.00;101560.31;5076466;28;20104;-58
2022/07/21 04:25:20;;;;;;;;;;;;;;;22.51;100.00;101562.63;5073077;28;20036;-58
2022/07/21 04:27:46;;;;;;;41.50;22.20;;;;;;;22.31;100.00;101571.38;5074062;28;19913;-57
2022/07/21 04:30:11;;;;;;;;;;;;;;;;;;5077012;28;20044;-57
2022/07/21 04:32:37;;;;;;;34.57;20.13;;;;;;;22.18;100.00;101562.56;5079214;28;19924;-55
2022/07/21 04:35:05;;;;;;;37.55;19.95;;;;;;;22.56;100.00;101561.84;5079522;28;20028;-58
2022/07/21 04:37:30;;;;;;;30.60;18.93;;;;;;;22.31;100.00;101569.50;5078670;28;20037;-56
2022/07/21 04:39:56;;;;;;;32.85;19.75;;;;;;;22.35;100.00;101567.06;5073454;28;20060;-59
2022/07/21 04:42:21;;;;;;;30.37;17.80;;;;;;;22.61;100.00;101567.34;5074097;28;20132;-58
2022/07/21 04:44:47;;;;;;;31.08;17.95;;;;;;;22.44;100.00;101576.44;5087450;28;20282;-60
2022/07/21 04:47:12;;;;;;;29.85;17.63;;;;;;;22.29;100.00;101573.56;5066913;28;20029;-59
2022/07/21 04:49:38;;;;;;;26.88;18.63;;;;;;;22.22;100.00;101576.47;5069636;28;20060;-59
2022/07/21 04:52:03;;;;;;;27.92;17.63;;;;;;;22.32;100.00;101581.22;5067157;28;20028;-58
2022/07/21 04:54:29;;;;;;;31.77;17.60;;;;;;;22.27;100.00;101581.16;5071327;28;20036;-59
2022/07/21 04:56:55;;;;;;;26.08;17.15;;;;;;;22.33;100.00;101574.69;5075066;28;20039;-58
2022/07/21 04:59:20;;;;;;;27.95;16.42;;;;;;;22.40;100.00;101575.31;5073473;28;20059;-59
2022/07/21 05:01:46;;;;;;;25.83;16.55;;;;;;;22.52;100.00;101572.47;5069158;28;20044;-57
2022/07/21 05:04:12;;;;;;;26.27;15.43;;;;;;;22.40;100.00;101575.31;5071678;28;20036;-57
2022/07/21 05:06:37;;;;;;;29.20;15.35;;;;;;;22.49;100.00;101573.78;5068799;28;20064;-59
2022/07/21 05:09:03;;;;;;;28.48;17.35;;;;;;;22.39;100.00;101570.09;5075314;28;20044;-58
2022/07/21 05:11:28;;;;;;;29.00;15.38;;;;;;;22.49;100.00;101572.97;5072876;28;20072;-59
2022/07/21 05:13:54;;;;;;;26.45;14.80;;;;;;;22.54;100.00;101569.47;5071426;28;20092;-59
2022/07/21 05:16:20;;;;;;;;;;;;;;;22.25;100.00;101572.44;5072161;28;20041;-59
2022/07/21 05:18:45;;;;;;;33.33;17.03;;;;;;;22.35;100.00;101570.63;5072369;28;19913;-58
2022/07/21 05:21:11;;;;;;;27.27;15.00;;;;;;;22.70;100.00;101573.13;5073658;28;20120;-59
2022/07/21 05:23:36;;;;;;;31.55;16.88;;;;;;;22.57;100.00;101574.38;5071324;28;20047;-60
2022/07/21 05:26:02;;;;;;;27.05;15.02;;;;;;;22.41;100.00;101559.78;5071625;28;20039;-60
2022/07/21 05:28:28;;;;;;;27.13;14.77;;;;;;;22.52;100.00;101569.72;5073444;28;20040;-59
2022/07/21 05:30:53;;;;;;;26.58;15.52;;;;;;;22.53;100.00;101570.53;5076645;28;20052;-60
2022/07/21 05:33:19;;;;;;;28.55;16.02;;;;;;;22.51;100.00;101568.09;5077822;28;20100;-60
2022/07/21 05:35:44;;;;;;;21.40;14.07;;;;;;;22.42;100.00;101562.25;5071383;28;20051;-59
2022/07/21 05:38:09;;;;;;;30.02;15.68;;;;;;;22.45;100.00;101566.34;5072874;28;20068;-59
2022/07/21 05:40:35;;;;;;;26.58;15.65;;;;;;;22.55;100.00;101558.31;5073909;28;20033;-59
2022/07/21 05:43:00;;;;;;;63.45;35.10;;;;;;;22.51;100.00;101559.06;5072609;28;20063;-59
2022/07/21 05:45:27;;;;;;;77.83;41.17;;;;;;;22.75;100.00;101560.38;5075334;28;20092;-59
2022/07/21 05:47:53;;;;;;;44.05;22.80;;;;;;;22.62;100.00;101560.81;5081299;28;20043;-59
2022/07/21 05:50:18;;;;;;;27.75;16.00;;;;;;;22.35;100.00;101556.16;5078407;28;20040;-60
2022/07/21 05:52:44;;;;;;;43.63;22.15;;;;;;;22.28;100.00;101561.00;5073612;28;20116;-59
2022/07/21 05:55:10;;;;;;;53.97;28.70;;;;;;;22.39;100.00;101557.31;5073376;28;20056;-59
2022/07/21 05:57:36;;;;;;;33.20;18.48;;;;;;;22.24;100.00;101557.16;5073859;28;20097;-60
2022/07/21 06:00:04;;;;;;;30.67;16.53;;;;;;;22.30;100.00;101548.78;5077231;28;20033;-60
2022/07/21 06:02:33;;;;;;;61.20;33.70;;;;;;;22.39;100.00;101559.22;5076513;28;20120;-59
2022/07/21 06:04:59;;;;;;;31.88;16.27;;;;;;;22.46;100.00;101551.63;5078356;28;20021;-60
2022/07/21 06:07:25;;;;;;;30.90;19.15;;;;;;;22.73;100.00;101551.63;5077068;28;20041;-60
2022/07/21 06:09:51;;;;;;;29.07;17.60;;;;;;;22.70;100.00;101552.16;5070896;28;20025;-59
2022/07/21 06:12:17;;;;;;;28.15;15.13;;;;;;;22.68;100.00;101548.88;5080775;28;20100;-59
2022/07/21 06:14:42;;;;;;;31.87;15.37;;;;;;;22.72;100.00;101554.59;5073506;28;20063;-60
2022/07/21 06:17:08;;;;;;;29.85;15.35;;;;;;;22.67;100.00;101552.69;5076936;28;20266;-60
2022/07/21 06:19:34;;;;;;;;;;;;;;;22.55;100.00;101552.03;5080403;28;20040;-60
2022/07/21 06:22:00;;;;;;;30.00;16.30;;;;;;;22.85;100.00;101548.72;5072820;28;19927;-60
2022/07/21 06:24:26;;;;;;;47.17;24.38;;;;;;;23.06;100.00;101562.50;5067917;28;20021;-61
2022/07/21 06:26:55;;;;;;;32.87;16.53;;;;;;;22.91;100.00;101555.03;5077428;28;20120;-60
2022/07/21 06:29:22;;;;;;;32.17;17.43;;;;;;;22.94;100.00;101562.69;5079202;28;20048;-60
2022/07/21 06:31:47;;;;;;;28.93;16.30;;;;;;;22.82;100.00;101559.31;5084921;28;20063;-61
2022/07/21 06:34:13;;;;;;;36.63;16.20;;;;;;;23.17;100.00;101544.31;5081486;28;20036;-60
2022/07/21 06:36:39;;;;;;;37.17;15.90;;;;;;;23.37;100.00;101553.72;5079862;28;20052;-60
2022/07/21 06:39:04;;;;;;;34.10;15.95;;;;;;;23.24;100.00;101555.00;5079157;28;20044;-60
2022/07/21 06:41:30;;;;;;;;;;;;;;;23.21;100.00;101556.31;5083812;28;20068;-60
2022/07/21 06:43:55;;;;;;;35.30;16.30;;;;;;;23.29;100.00;101549.59;5081281;28;19924;-59
2022/07/21 06:46:21;;;;;;;27.20;15.38;;;;;;;23.95;100.00;101547.38;5077748;28;20067;-60
2022/07/21 06:48:46;;;;;;;30.40;15.65;;;;;;;23.66;100.00;101548.69;5087000;28;20040;-59
2022/07/21 06:51:12;;;;;;;33.08;15.30;;;;;;;23.97;100.00;101548.78;5083651;28;20139;-61
2022/07/21 06:53:37;;;;;;;33.92;16.30;;;;;;;23.89;100.00;101549.31;5083468;28;20040;-61
2022/07/21 06:56:03;;;;;;;;;;;;;;;23.83;100.00;101553.94;5084056;28;20078;-60
2022/07/21 06:58:31;;;;;;;28.93;15.83;;;;;;;24.09;100.00;101547.72;5079060;28;19912;-60
2022/07/21 07:00:56;;;;;;;30.83;16.30;;;;;;;23.95;100.00;101547.38;5078423;28;20036;-60
2022/07/21 07:03:22;;;;;;;33.40;17.27;;;;;;;23.82;100.00;101555.00;5088042;28;20036;-60
2022/07/21 07:05:48;;;;;;;31.33;17.77;;;;;;;23.80;100.00;101559.94;5081326;28;20044;-59
2022/07/21 07:08:14;;;;;;;36.17;18.38;;;;;;;24.03;100.00;101557.84;5080931;28;20017;-59
2022/07/21 07:10:41;;;;;;;30.77;17.63;;;;;;;23.79;100.00;101555.56;5079009;28;20032;-60
2022/07/21 07:13:07;;;;;;;35.78;19.75;;;;;;;23.72;100.00;101560.41;5085562;28;20032;-60
2022/07/21 07:15:32;;;;;;;;;;;;;;;23.73;100.00;101567.53;5084040;28;20029;-60
2022/07/21 07:17:57;;;;;;;40.13;18.00;;;;;;;23.50;100.00;101561.41;5077700;28;19916;-60
2022/07/21 07:20:23;;;;;;;40.85;20.17;;;;;;;23.61;100.00;101565.84;5083272;28;20096;-60
2022/07/21 07:22:49;;;;;;;;;;;;;;;23.60;100.00;101568.84;5081017;28;20055;-60
2022/07/21 07:25:18;;;;;;;41.33;23.13;;;;;;;23.24;100.00;101580.34;5080245;28;19912;-59
2022/07/21 07:27:45;;;;;;;41.57;22.80;;;;;;;23.15;100.00;101576.47;5080584;28;20115;-59
2022/07/21 07:30:12;;;;;;;40.90;23.50;;;;;;;23.06;100.00;101570.69;5087365;28;20041;-59
2022/07/21 07:32:37;;;;;;;46.37;25.07;;;;;;;23.08;100.00;101573.97;5082016;28;20029;-59
2022/07/21 07:35:03;;;;;;;51.55;25.20;;;;;;;23.11;100.00;101573.44;5081020;28;20061;-60
2022/07/21 07:37:28;;;;;;;46.65;26.73;;;;;;;22.86;100.00;101580.38;5075978;28;20068;-59
2022/07/21 07:39:54;;;;;;;47.30;27.02;;;;;;;22.74;100.00;101569.63;5079383;28;20045;-60
2022/07/21 07:42:19;;;;;;;54.58;26.27;;;;;;;22.91;100.00;101577.66;5082383;28;20093;-60
2022/07/21 07:44:46;;;;;;;45.25;25.00;;;;;;;23.15;100.00;101584.66;5080085;28;20052;-59
2022/07/21 07:47:11;;;;;;;42.93;24.60;;;;;;;23.16;100.00;101583.59;5086999;28;20104;-59
2022/07/21 07:49:37;;;;;;;49.93;25.73;;;;;;;22.90;100.00;101584.22;5077850;28;20025;-59
2022/07/21 07:52:05;;;;;;;53.80;27.52;;;;;;;22.76;100.00;101589.28;5077481;28;20037;-59
2022/07/21 07:54:30;;;;;;;58.07;26.27;;;;;;;22.51;100.00;101602.69;5085320;28;20062;-60
2022/07/21 07:56:56;;;;;;;57.80;27.55;;;;;;;22.30;100.00;101599.72;5079920;28;20029;-59
2022/07/21 07:59:21;;;;;;;53.35;26.20;;;;;;;22.36;100.00;101595.97;5081953;28;20136;-60
2022/07/21 08:01:47;;;;;;;53.70;27.90;;;;;;;22.35;100.00;101594.31;5078831;28;20025;-60
2022/07/21 08:04:14;;;;;;;50.10;26.38;;;;;;;22.49;100.00;101594.78;5079903;28;20037;-59
2022/07/21 08:06:39;;;;;;;49.17;24.70;;;;;;;22.59;100.00;101603.03;5078267;28;20041;-60
2022/07/21 08:09:05;;;;;;;51.97;25.52;;;;;;;22.40;100.00;101596.28;5084465;28;20076;-60
2022/07/21 08:11:31;;;;;;;40.17;23.23;;;;;;;22.03;100.00;101601.34;5085687;28;20033;-60
2022/07/21 08:13:56;;;;;;;32.67;19.38;;;;;;;22.10;100.00;101608.50;5080699;28;20029;-59
2022/07/21 08:16:22;;;;;;;31.27;18.90;;;;;;;22.25;100.00;101597.75;5077049;28;20036;-59
2022/07/21 08:18:48;;;;;;;;;;;;;;;22.09;100.00;101607.66;5079179;28;20096;-58
2022/07/21 08:21:14;;;;;;;149.27;29.37;;;;;;;21.97;100.00;101612.44;5080486;28;19916;-57
2022/07/21 08:23:39;;;;;;;;;;;;;;;28.00;100.00;101668.63;5087759;28;20028;-54
2022/07/21 08:26:05;;;;;;;144.17;32.40;;;;;;;29.93;100.00;101682.91;5079052;28;19964;-53
2022/07/21 08:28:30;;;;;;;106.13;30.73;;;;;;;27.09;100.00;101666.56;5076688;28;20063;-50
2022/07/21 08:30:55;;;;;;;63.30;28.75;;;;;;;27.18;100.00;101659.34;5079722;28;20048;-50
2022/07/21 08:33:21;;;;;;;72.20;30.85;;;;;;;28.01;100.00;101606.25;5074326;28;20041;-54
2022/07/21 08:35:46;;;;;;;68.47;30.20;;;;;;;27.65;100.00;101595.69;5072953;28;20033;-55
2022/07/21 08:38:12;;;;;;;74.00;32.28;;;;;;;28.52;100.00;101603.88;5076907;28;20041;-55
2022/07/21 08:40:42;;;;;;;70.20;30.52;;;;;;;28.88;100.00;101601.38;5081375;28;20039;-53
2022/07/21 08:43:09;;;;;;;74.57;30.60;;;;;;;28.95;100.00;101603.72;5083086;28;20061;-51
2022/07/21 08:45:39;;;;;;;98.87;38.50;;;;;;;28.59;100.00;101607.88;5079115;28;20029;-50
2022/07/21 08:48:05;;;;;;;95.30;38.03;;;;;;;28.70;100.00;101594.78;5080194;28;20024;-52
2022/07/21 08:50:33;;;;;;;79.03;35.47;;;;;;;28.89;100.00;101602.19;5078114;28;20029;-54
2022/07/21 08:52:59;;;;;;;72.10;33.50;;;;;;;28.42;100.00;101600.19;5076964;28;20061;-52
2022/07/21 08:55:24;;;;;;;78.50;34.67;;;;;;;28.19;100.00;101601.88;5079454;28;20057;-54
2022/07/21 08:57:50;;;;;;;;;;;;;;;27.73;100.00;101597.81;5087720;28;20032;-54
2022/07/21 09:00:16;;;;;;;74.50;30.27;;;;;;;28.56;100.00;101599.41;5083443;28;19912;-55
2022/07/21 09:02:41;;;;;;;65.32;30.17;;;;;;;28.62;100.00;101600.97;5074565;28;20030;-49
2022/07/21 09:05:09;;;;;;;68.15;26.73;;;;;;;27.68;100.00;101595.94;5077832;28;20036;-54
2022/07/21 09:07:57;;;;;;;61.73;26.60;;;;;;;27.93;100.00;101595.91;5082300;28;20036;-56
2022/07/21 09:10:25;;;;;;;64.30;27.20;;;;;;;28.37;100.00;101594.72;5073965;28;20088;-57
2022/07/21 09:13:03;;;;;;;61.20;26.03;;;;;;;27.89;100.00;101592.94;5078681;28;20041;-57
2022/07/21 09:15:31;;;;;;;53.33;24.57;;;;;;;27.80;100.00;101594.72;5076418;28;20028;-58
2022/07/21 09:18:09;;;;;;;53.53;24.47;;;;;;;28.33;100.00;101593.69;5078365;28;20028;-55
2022/07/21 09:20:36;;;;;;;48.77;23.20;;;;;;;28.42;100.00;101602.09;5079833;28;20044;-58
2022/07/21 09:23:11;;;;;;;50.43;23.40;;;;;;;29.14;100.00;101605.59;5080704;28;20040;-57
2022/07/21 09:25:41;;;;;;;81.90;25.90;;;;;;;29.02;100.00;101606.91;5081421;28;20033;-55
2022/07/21 09:28:20;;;;;;;61.77;24.50;;;;;;;29.89;100.00;101605.53;5076595;28;20053;-58
2022/07/21 09:30:56;;;;;;;49.37;22.97;;;;;;;28.34;100.00;101609.91;5075678;28;20036;-58
2022/07/21 09:33:26;;;;;;;57.75;24.65;;;;;;;27.87;100.00;101609.69;5078649;28;20052;-56
2022/07/21 09:35:59;;;;;;;57.83;24.50;;;;;;;28.38;100.00;101615.66;5074657;28;20040;-56
2022/07/21 09:38:26;;;;;;;59.43;24.60;;;;;;;28.17;100.00;101613.19;5083158;28;20033;-54
2022/07/21 09:40:53;;;;;;;57.07;26.37;;;;;;;28.25;100.00;101613.63;5082911;28;20044;-56
2022/07/21 09:43:32;;;;;;;;;;;;;;;28.12;100.00;101626.97;5077692;28;20230;-55
2022/07/21 09:46:05;;;;;;;62.77;25.60;;;;;;;28.13;100.00;101627.78;5072933;28;19924;-55
2022/07/21 09:48:36;;;;;;;63.63;26.03;;;;;;;28.35;100.00;101635.47;5073225;28;20032;-56
2022/07/21 09:51:28;;;;;;;66.70;30.10;;;;;;;27.12;100.00;101622.06;5077391;28;20131;-53
2022/07/21 09:53:57;;;;;;;54.97;28.83;;;;;;;27.46;100.00;101630.22;5074898;28;20033;-56
2022/07/21 09:56:25;;;;;;;60.37;30.63;;;;;;;27.45;100.00;101630.50;5080214;28;20025;-53
2022/07/21 09:58:53;;;;;;;59.90;31.17;;;;;;;27.42;100.00;101637.41;5086195;28;20025;-55
2022/07/21 10:01:19;;;;;;;64.40;30.57;;;;;;;27.51;100.00;101640.38;5076532;28;20033;-54
2022/07/21 10:03:47;;;;;;;61.43;30.90;;;;;;;27.29;100.00;101636.19;5081856;28;20092;-56
2022/07/21 10:06:14;;;;;;;51.53;26.80;;;;;;;26.32;100.00;101633.88;5087186;28;20059;-55
2022/07/21 10:08:41;;;;;;;65.93;28.73;;;;;;;26.43;100.00;101639.31;5079848;28;20043;-57
2022/07/21 10:11:08;;;;;;;62.57;26.70;;;;;;;27.59;100.00;101653.47;5086127;28;20036;-54
2022/07/21 10:13:34;;;;;;;49.03;26.67;;;;;;;28.08;100.00;101652.63;5092374;28;20047;-57
2022/07/21 10:16:00;;;;;;;53.80;26.03;;;;;;;28.28;100.00;101657.03;5081413;28;20055;-54
2022/07/21 10:18:28;;;;;;;;;;;;;;;28.17;100.00;101648.94;5077349;28;20055;-54
2022/07/21 10:21:01;;;;;;;;;;;;;;;27.96;100.00;101653.84;5078821;28;19938;-54
2022/07/21 10:23:41;;;;;;;44.20;24.47;;;;;;;28.26;100.00;101662.84;5078464;28;19917;-57
2022/07/21 10:26:09;;;;;;;53.50;26.80;;;;;;;28.24;100.00;101658.75;5076645;28;20029;-54
2022/07/21 10:28:36;;;;;;;56.43;29.07;;;;;;;27.39;100.00;101656.38;5076798;28;20039;-57
2022/07/21 10:31:21;;;;;;;;;;;;;;;27.20;100.00;101663.44;5073670;28;20055;-56
2022/07/21 10:33:47;;;;;;;80.43;35.27;;;;;;;28.21;100.00;101670.34;5076530;28;20383;-56
2022/07/21 10:36:28;;;;;;;82.37;37.03;;;;;;;27.90;100.00;101669.56;5080149;28;20060;-56
2022/07/21 10:39:17;;;;;;;66.87;34.53;;;;;;;26.62;100.00;101659.47;5080793;28;20036;-56
2022/07/21 10:41:49;;;;;;;68.20;35.57;;;;;;;26.37;100.00;101665.94;5075320;28;20037;-55
2022/07/21 10:44:27;;;;;;;78.47;37.80;;;;;;;27.09;100.00;101666.56;5084381;28;20044;-56
2022/07/21 10:47:11;;;;;;;67.87;37.23;;;;;;;26.38;100.00;101661.25;5086902;28;20178;-57
2022/07/21 10:49:44;;;;;;;67.57;35.03;;;;;;;27.54;100.00;101670.00;5076905;28;20032;-54
2022/07/21 10:52:35;;;;;;;68.63;36.07;;;;;;;27.19;100.00;101675.53;5076304;28;20032;-54
2022/07/21 10:55:09;;;;;;;67.97;35.17;;;;;;;26.38;100.00;101666.75;5079023;28;20033;-55
2022/07/21 10:57:36;;;;;;;69.07;37.40;;;;;;;26.28;100.00;101675.84;5076810;28;20048;-58
2022/07/21 11:00:20;;;;;;;73.87;37.30;;;;;;;25.71;100.00;101673.31;5079355;28;20040;-56
2022/07/21 11:03:00;;;;;;;74.87;36.97;;;;;;;25.76;100.00;101678.78;5078805;28;20025;-55
2022/07/21 11:05:29;;;;;;;78.53;38.97;;;;;;;26.68;100.00;101678.66;5081184;28;20040;-52
2022/07/21 11:08:16;;;;;;;82.80;40.17;;;;;;;25.86;100.00;101686.13;5081921;28;20032;-56
2022/07/21 11:10:45;;;;;;;84.40;38.23;;;;;;;26.84;100.00;101684.84;5076543;28;20033;-57
2022/07/21 11:13:12;;;;;;;85.93;38.83;;;;;;;27.08;100.00;101684.94;5079635;28;20037;-56
2022/07/21 11:15:52;;;;;;;61.47;31.13;;;;;;;26.13;100.00;101683.03;5080210;28;20040;-57